Time;durP1;ratioP1;P1;durP2;ratioP2;P2;SDS_P1;SDS_P2;PMS_P1;PMS_P2;Temp;Humidity;BMP_temperature;BMP_pressure;BME280_temperature;BME280_humidity;BME280_pressure;Samples;Min_cycle;Max_cycle;Signal;HPM_P1;HPM_P2
2023/01/07 00:01:35;;;;;;;33.30;20.90;;;;;;;1.15;93.13;100299.73;100916;1286;109072;-68
2023/01/07 00:04:05;;;;;;;32.60;20.80;;;;;;;1.17;92.97;100308.83;99971;1298;138308;-68
2023/01/07 00:06:34;;;;;;;31.90;21.40;;;;;;;1.25;93.39;100306.83;99970;1289;96475;-68
2023/01/07 00:09:03;;;;;;;33.90;20.70;;;;;;;1.33;93.35;100312.88;100029;1290;137933;-69
2023/01/07 00:11:33;;;;;;;33.60;21.00;;;;;;;1.40;93.44;100314.27;99810;1283;355800;-67
2023/01/07 00:14:01;;;;;;;33.80;21.10;;;;;;;1.48;93.49;100317.59;100345;1281;110112;-67
2023/01/07 00:16:30;;;;;;;34.70;22.40;;;;;;;1.56;93.52;100322.42;99877;1288;138697;-67
2023/01/07 00:18:58;;;;;;;35.60;22.10;;;;;;;1.66;93.69;100326.27;100090;1288;96535;-67
2023/01/07 00:21:27;;;;;;;33.40;21.90;;;;;;;1.71;93.28;100331.94;99989;1288;139033;-67
2023/01/07 00:23:57;;;;;;;32.50;22.40;;;;;;;1.73;93.19;100335.71;100118;1291;96588;-68
2023/01/07 00:26:26;;;;;;;34.30;22.20;;;;;;;1.75;92.89;100332.46;99979;1289;138504;-68
2023/01/07 00:28:54;;;;;;;36.00;23.20;;;;;;;1.75;92.92;100335.55;100169;1291;107813;-68
2023/01/07 00:31:23;;;;;;;40.70;23.80;;;;;;;1.79;92.81;100336.77;100425;1289;97047;-69
2023/01/07 00:34:05;;;;;;;40.30;24.90;;;;;;;1.82;92.92;100341.43;99268;1291;1002487;-68
2023/01/07 00:36:34;;;;;;;54.10;25.90;;;;;;;1.82;92.50;100347.60;100149;1289;96384;-69
2023/01/07 00:39:04;;;;;;;49.80;24.70;;;;;;;1.80;92.32;100353.41;100067;1289;138455;-69
2023/01/07 00:41:31;;;;;;;53.60;26.40;;;;;;;1.77;92.35;100355.09;99377;1288;1003198;-68
2023/01/07 00:43:59;;;;;;;54.60;26.10;;;;;;;1.77;92.32;100358.00;100177;1295;96470;-69
2023/01/07 00:46:26;;;;;;;49.70;27.60;;;;;;;1.75;92.36;100353.20;100006;1289;138960;-68
2023/01/07 00:48:53;;;;;;;55.10;27.90;;;;;;;1.76;92.61;100345.84;100097;1288;96377;-69
2023/01/07 00:51:20;;;;;;;57.00;27.40;;;;;;;1.77;92.68;100343.78;100125;1282;138563;-69
2023/01/07 00:53:47;;;;;;;56.60;28.80;;;;;;;1.79;93.03;100342.60;100077;1289;107934;-69
2023/01/07 00:56:16;;;;;;;62.30;28.70;;;;;;;1.82;92.87;100342.80;100181;1291;96552;-69
2023/01/07 00:58:44;;;;;;;58.90;29.00;;;;;;;1.81;92.59;100344.00;100001;1290;106717;-68
2023/01/07 01:01:12;;;;;;;57.70;28.50;;;;;;;1.80;92.64;100349.66;100156;1291;96465;-68
2023/01/07 01:03:40;;;;;;;53.50;27.90;;;;;;;1.82;92.73;100365.26;99977;1291;138006;-68
2023/01/07 01:06:12;;;;;;;59.10;28.00;;;;;;;1.85;92.96;100361.67;100096;1291;107340;-68
2023/01/07 01:08:40;;;;;;;53.10;26.60;;;;;;;1.86;92.87;100378.30;100007;1288;138852;-68
2023/01/07 01:11:10;;;;;;;57.20;27.50;;;;;;;1.88;92.70;100377.62;100067;1289;107369;-68
2023/01/07 01:13:37;;;;;;;58.40;27.10;;;;;;;1.90;92.66;100374.03;100139;1281;96386;-67
2023/01/07 01:16:10;;;;;;;51.70;28.30;;;;;;;1.92;92.76;100377.80;100045;1291;138001;-68
2023/01/07 01:18:37;;;;;;;50.40;26.50;;;;;;;1.96;93.00;100375.78;100144;1290;106945;-68
2023/01/07 01:21:06;;;;;;;50.70;26.90;;;;;;;2.01;93.06;100374.27;99913;1292;138322;-68
2023/01/07 01:23:33;;;;;;;58.60;29.00;;;;;;;2.03;92.80;100370.50;100048;1289;107281;-68
2023/01/07 01:26:06;;;;;;;57.90;27.80;;;;;;;2.03;92.75;100372.55;100130;1298;96469;-68
2023/01/07 01:28:34;;;;;;;58.70;28.50;;;;;;;2.04;92.88;100371.88;100241;1281;138346;-69
2023/01/07 01:31:02;;;;;;;56.70;29.20;;;;;;;2.05;92.70;100368.10;100043;1291;106991;-68
2023/01/07 01:33:37;;;;;;;56.70;29.20;;;;;;;2.09;92.85;100367.95;99976;1290;139507;-69
2023/01/07 01:36:09;;;;;;;55.10;28.90;;;;;;;2.14;92.76;100370.70;100063;1292;107373;-68
2023/01/07 01:38:36;;;;;;;57.50;28.70;;;;;;;2.16;92.93;100368.15;100138;1291;138412;-69
2023/01/07 01:41:03;;;;;;;53.90;29.60;;;;;;;2.21;92.93;100375.89;99990;1297;109547;-69
2023/01/07 01:43:36;;;;;;;51.20;28.40;;;;;;;2.25;92.69;100373.16;99952;1292;107447;-69
2023/01/07 01:46:05;;;;;;;55.20;28.80;;;;;;;2.27;92.63;100379.51;100009;1291;138468;-69
2023/01/07 01:48:36;;;;;;;60.40;29.70;;;;;;;2.32;92.57;100382.61;100041;1289;107860;-69
2023/01/07 01:51:04;;;;;;;57.10;30.20;;;;;;;2.37;92.57;100383.33;99987;1297;138924;-69
2023/01/07 01:53:35;;;;;;;60.40;30.50;;;;;;;2.45;92.96;100381.61;100027;1285;109652;-70
2023/01/07 01:56:07;;;;;;;56.00;30.50;;;;;;;2.50;92.57;100382.31;100009;1294;108863;-68
2023/01/07 01:58:38;;;;;;;67.70;31.70;;;;;;;2.55;92.67;100391.10;99995;1281;137372;-69
2023/01/07 02:01:05;;;;;;;68.60;32.40;;;;;;;2.56;92.46;100388.19;100188;1291;106993;-69
2023/01/07 02:03:36;;;;;;;65.40;32.40;;;;;;;2.55;92.37;100389.39;99548;1294;1003471;-68
2023/01/07 02:06:03;;;;;;;72.90;31.40;;;;;;;2.55;92.18;100392.30;100107;1290;110166;-69
2023/01/07 02:08:31;;;;;;;66.00;33.30;;;;;;;2.53;92.04;100390.59;99834;1288;138439;-68
2023/01/07 02:11:16;;;;;;;66.40;32.00;;;;;;;2.53;92.13;100387.67;100025;1291;96953;-69
2023/01/07 02:14:01;;;;;;;58.30;29.00;;;;;;;2.54;92.16;100384.75;99985;1282;107693;-68
2023/01/07 02:16:36;;;;;;;67.90;31.80;;;;;;;2.54;92.12;100379.61;100126;1291;138322;-68
2023/01/07 02:19:23;;;;;;;64.00;30.10;;;;;;;2.57;92.36;100376.52;100184;1288;109411;-69
2023/01/07 02:21:57;;;;;;;61.40;32.40;;;;;;;2.56;91.99;100381.33;100030;1281;138350;-68
2023/01/07 02:24:49;;;;;;;61.80;30.90;;;;;;;2.59;92.25;100382.52;99962;1292;96462;-68
2023/01/07 02:27:25;;;;;;;65.90;30.50;;;;;;;2.62;92.31;100380.98;99937;1292;140851;-68
2023/01/07 02:30:07;;;;;;;;;;;;;;;2.63;92.08;100378.92;100186;1291;96459;-68
2023/01/07 02:32:53;;;;;;;61.10;28.80;;;;;;;2.63;92.30;100373.42;100061;1295;124329;-68
2023/01/07 02:35:31;;;;;;;54.80;28.00;;;;;;;2.69;92.75;100369.84;100037;1297;107387;-68
2023/01/07 02:38:07;;;;;;;54.70;28.50;;;;;;;2.74;92.66;100371.58;100328;1291;96531;-68
2023/01/07 02:40:43;;;;;;;58.20;27.80;;;;;;;2.79;92.39;100372.44;99991;1291;138038;-69
2023/01/07 02:43:16;;;;;;;79.50;29.50;;;;;;;2.83;92.43;100372.42;100145;1288;96339;-68
2023/01/07 02:45:49;;;;;;;62.90;29.40;;;;;;;2.88;92.17;100365.75;100066;1295;137563;-68
2023/01/07 02:48:19;;;;;;;71.50;30.30;;;;;;;2.85;92.04;100370.02;100078;1291;108747;-68
2023/01/07 02:50:46;;;;;;;60.20;30.50;;;;;;;2.84;92.00;100371.57;100027;1289;138037;-68
2023/01/07 02:53:18;;;;;;;55.50;28.00;;;;;;;2.87;92.46;100373.81;100031;1289;107433;-68
2023/01/07 02:55:57;;;;;;;58.10;29.20;;;;;;;2.90;92.39;100372.80;100226;1296;96550;-69
2023/01/07 02:58:48;;;;;;;65.00;29.40;;;;;;;2.93;92.46;100371.25;100316;1289;139588;-69
2023/01/07 03:01:34;;;;;;;50.90;27.90;;;;;;;2.95;92.12;100372.11;100061;1290;108879;-69
2023/01/07 03:04:14;;;;;;;48.60;26.20;;;;;;;2.95;92.05;100367.81;100324;1289;138765;-68
2023/01/07 03:06:56;;;;;;;47.30;25.20;;;;;;;2.94;91.88;100365.75;101508;1284;107496;-68
2023/01/07 03:09:30;;;;;;;62.50;26.50;;;;;;;2.92;91.58;100370.05;100364;1285;1003458;-69
2023/01/07 03:12:05;;;;;;;49.20;24.50;;;;;;;2.88;91.45;100368.84;100203;1292;109448;-68
2023/01/07 03:14:40;;;;;;;60.20;24.60;;;;;;;2.83;91.46;100375.52;99847;1291;138507;-70
2023/01/07 03:17:12;;;;;;;59.60;25.70;;;;;;;2.80;91.66;100376.04;100059;1292;97081;-68
2023/01/07 03:19:45;;;;;;;59.60;25.90;;;;;;;2.76;91.56;100377.58;100060;1291;107437;-70
2023/01/07 03:22:15;;;;;;;56.20;25.90;;;;;;;2.73;91.62;100373.63;99870;1286;138267;-66
2023/01/07 03:24:46;;;;;;;58.70;25.50;;;;;;;2.70;91.52;100376.71;100064;1282;109528;-69
2023/01/07 03:27:16;;;;;;;42.60;24.20;;;;;;;2.68;92.04;100377.89;99977;1288;138312;-67
2023/01/07 03:29:43;;;;;;;43.00;24.50;;;;;;;2.70;92.31;100378.61;99417;1283;1003514;-68
2023/01/07 03:32:16;;;;;;;44.10;24.20;;;;;;;2.72;92.36;100377.07;99369;1298;1002580;-66
2023/01/07 03:34:44;;;;;;;44.40;25.40;;;;;;;2.76;92.58;100379.98;100121;1289;96447;-68
2023/01/07 03:37:14;;;;;;;42.00;24.10;;;;;;;2.80;92.88;100381.53;100179;1294;109348;-68
2023/01/07 03:39:44;;;;;;;45.80;25.80;;;;;;;2.81;92.55;100380.67;99947;1289;139576;-68
2023/01/07 03:44:58;;;;;;;40.30;23.00;;;;;;;2.80;92.56;100381.54;100004;1297;138895;-67
2023/01/07 03:47:29;;;;;;;39.10;22.90;;;;;;;2.79;92.58;100377.06;100081;1288;96484;-67
2023/01/07 03:49:56;;;;;;;44.70;25.50;;;;;;;2.76;92.57;100383.59;100037;1288;108848;-68
2023/01/07 03:52:23;;;;;;;45.50;24.90;;;;;;;2.73;92.65;100379.13;99147;1301;1003295;-68
2023/01/07 03:54:51;;;;;;;45.70;25.80;;;;;;;2.72;92.71;100379.98;100199;1284;96959;-67
2023/01/07 03:57:18;;;;;;;45.90;25.60;;;;;;;2.70;92.81;100380.84;99928;1284;138143;-69
2023/01/07 03:59:45;;;;;;;41.00;24.20;;;;;;;2.68;92.88;100376.17;99941;1284;94725;-68
2023/01/07 04:02:13;;;;;;;42.30;23.60;;;;;;;2.67;93.27;100375.14;100148;1291;110320;-68
2023/01/07 04:04:40;;;;;;;44.90;24.30;;;;;;;2.68;93.62;100379.95;99357;1282;1003027;-68
2023/01/07 04:07:08;;;;;;;41.30;23.10;;;;;;;2.70;93.64;100383.23;100075;1298;97055;-67
2023/01/07 04:09:35;;;;;;;42.10;24.40;;;;;;;2.71;93.65;100383.25;100023;1287;138155;-67
2023/01/07 04:12:03;;;;;;;42.30;24.30;;;;;;;2.73;93.65;100381.36;100600;1289;96512;-67
2023/01/07 04:14:30;;;;;;;43.90;25.40;;;;;;;2.76;94.05;100383.25;100033;1289;138241;-68
2023/01/07 04:16:58;;;;;;;42.50;24.30;;;;;;;2.79;94.11;100383.42;100074;1282;107606;-68
2023/01/07 04:19:25;;;;;;;45.80;24.70;;;;;;;2.82;94.13;100382.91;100054;1297;96562;-67
2023/01/07 04:21:53;;;;;;;45.80;25.10;;;;;;;2.84;94.03;100382.05;99946;1295;139256;-67
2023/01/07 04:24:20;;;;;;;44.10;26.00;;;;;;;2.84;93.85;100380.16;100000;1290;96529;-69
2023/01/07 04:26:47;;;;;;;45.90;24.80;;;;;;;2.85;93.85;100378.95;99831;1292;138694;-68
2023/01/07 04:29:15;;;;;;;44.70;24.40;;;;;;;2.87;94.04;100376.56;100003;1295;107495;-68
2023/01/07 04:31:42;;;;;;;44.20;25.30;;;;;;;2.89;94.00;100375.72;100059;1288;96549;-69
2023/01/07 04:34:09;;;;;;;42.70;23.70;;;;;;;2.90;93.91;100377.95;99922;1290;138885;-68
2023/01/07 04:36:36;;;;;;;45.00;24.50;;;;;;;2.91;93.89;100383.27;100106;1289;96541;-68
2023/01/07 04:39:04;;;;;;;42.70;23.80;;;;;;;2.91;94.06;100378.64;100059;1289;138166;-69
2023/01/07 04:41:31;;;;;;;38.40;22.90;;;;;;;2.92;93.92;100378.98;100052;1296;107257;-69
2023/01/07 04:43:58;;;;;;;40.20;23.70;;;;;;;2.97;94.24;100381.55;99994;1290;96474;-70
2023/01/07 04:46:25;;;;;;;40.50;23.00;;;;;;;3.01;94.43;100377.42;100054;1294;138497;-70
2023/01/07 04:48:53;;;;;;;40.30;22.40;;;;;;;3.03;94.27;100380.86;100000;1303;96587;-69
2023/01/07 04:51:21;;;;;;;40.40;23.00;;;;;;;3.05;94.33;100382.08;100054;1297;138328;-69
2023/01/07 04:53:48;;;;;;;38.20;23.50;;;;;;;3.06;94.18;100378.48;100033;1289;108440;-69
2023/01/07 04:56:16;;;;;;;40.80;22.80;;;;;;;3.07;94.13;100374.36;99293;1294;1002785;-69
2023/01/07 04:58:44;;;;;;;38.00;21.70;;;;;;;3.08;94.27;100370.91;100158;1282;106870;-69
2023/01/07 05:01:12;;;;;;;35.10;21.70;;;;;;;3.09;94.09;100373.33;100125;1292;96484;-69
2023/01/07 05:03:39;;;;;;;40.10;22.00;;;;;;;3.12;94.35;100376.92;100054;1296;138249;-69
2023/01/07 05:06:08;;;;;;;32.00;19.60;;;;;;;3.16;94.32;100393.76;100081;1291;107424;-68
2023/01/07 05:08:35;;;;;;;36.20;20.70;;;;;;;3.19;94.25;100402.34;100011;1295;139316;-69
2023/01/07 05:11:04;;;;;;;36.70;20.40;;;;;;;3.20;94.17;100400.80;100130;1298;106456;-69
2023/01/07 05:13:34;;;;;;;35.30;20.40;;;;;;;3.22;94.14;100400.28;99329;1288;1003094;-69
2023/01/07 05:16:02;;;;;;;36.50;19.50;;;;;;;3.25;94.20;100401.85;99399;1297;1003555;-69
2023/01/07 05:18:31;;;;;;;33.90;19.70;;;;;;;3.30;94.04;100406.14;100181;1295;109209;-68
2023/01/07 05:20:58;;;;;;;38.00;20.00;;;;;;;3.32;94.02;100406.66;99974;1297;138584;-69
2023/01/07 05:23:25;;;;;;;34.40;18.80;;;;;;;3.35;94.02;100404.75;99994;1290;108013;-69
2023/01/07 05:25:53;;;;;;;31.40;19.00;;;;;;;3.38;94.09;100406.30;99996;1292;96313;-70
2023/01/07 05:28:20;;;;;;;33.10;19.70;;;;;;;3.41;94.04;100412.48;99901;1291;231270;-69
2023/01/07 05:30:47;;;;;;;31.80;19.40;;;;;;;3.44;93.94;100419.73;100096;1282;107223;-68
2023/01/07 05:33:14;;;;;;;34.80;20.60;;;;;;;3.47;94.06;100422.80;99921;1289;138261;-69
2023/01/07 05:35:42;;;;;;;32.00;19.60;;;;;;;3.49;93.76;100421.59;99249;1291;1003756;-69
2023/01/07 05:38:09;;;;;;;37.40;19.80;;;;;;;3.51;93.94;100423.14;99372;1289;1002491;-69
2023/01/07 05:40:36;;;;;;;33.70;19.20;;;;;;;3.56;94.18;100427.08;99183;1297;1002615;-68
2023/01/07 05:43:03;;;;;;;34.20;20.40;;;;;;;3.58;94.08;100428.11;100006;1287;107821;-69
2023/01/07 05:45:31;;;;;;;33.70;18.60;;;;;;;3.58;93.73;100427.94;99854;1297;138713;-69
2023/01/07 05:47:58;;;;;;;32.40;18.40;;;;;;;3.58;93.59;100429.31;100108;1298;107178;-69
2023/01/07 05:50:25;;;;;;;30.20;19.30;;;;;;;3.57;93.76;100431.73;99287;1281;1004426;-69
2023/01/07 05:52:53;;;;;;;34.50;18.00;;;;;;;3.60;93.78;100433.13;100152;1298;110713;-69
2023/01/07 05:55:20;;;;;;;31.90;18.50;;;;;;;3.62;93.63;100434.84;99988;1288;106895;-69
2023/01/07 05:57:47;;;;;;;28.70;17.60;;;;;;;3.63;93.58;100433.80;99968;1290;138326;-68
2023/01/07 06:00:17;;;;;;;28.80;17.80;;;;;;;3.64;93.68;100431.56;100114;1281;109256;-68
2023/01/07 06:02:44;;;;;;;29.80;17.20;;;;;;;3.65;93.65;100433.45;100023;1291;138888;-69
2023/01/07 06:05:12;;;;;;;30.10;17.50;;;;;;;3.67;93.59;100428.98;100134;1287;108984;-69
2023/01/07 06:07:39;;;;;;;28.90;18.70;;;;;;;3.68;93.67;100430.34;100108;1289;107711;-69
2023/01/07 06:10:07;;;;;;;33.40;17.80;;;;;;;3.69;93.55;100429.31;99980;1288;138380;-69
2023/01/07 06:12:34;;;;;;;31.20;17.90;;;;;;;3.73;93.85;100433.95;100099;1285;108759;-69
2023/01/07 06:15:01;;;;;;;31.90;18.60;;;;;;;3.72;93.39;100431.88;100003;1288;139429;-69
2023/01/07 06:17:28;;;;;;;28.50;17.20;;;;;;;3.72;93.39;100434.46;100092;1287;110882;-69
2023/01/07 06:19:55;;;;;;;27.90;16.20;;;;;;;3.73;93.44;100436.52;100097;1291;108752;-69
2023/01/07 06:22:22;;;;;;;30.80;17.90;;;;;;;3.72;93.18;100438.42;100032;1289;138639;-69
2023/01/07 06:24:49;;;;;;;30.50;16.60;;;;;;;3.71;93.28;100440.83;99916;1290;108502;-69
2023/01/07 06:27:16;;;;;;;26.30;15.90;;;;;;;3.75;93.57;100448.56;99965;1295;139342;-69
2023/01/07 06:29:44;;;;;;;24.60;15.60;;;;;;;3.80;93.79;100449.09;100032;1297;111073;-69
2023/01/07 06:32:11;;;;;;;25.60;15.10;;;;;;;3.83;93.68;100456.48;100030;1291;108797;-69
2023/01/07 06:34:38;;;;;;;28.10;16.80;;;;;;;3.89;94.00;100458.86;100178;1288;138394;-69
2023/01/07 06:37:05;;;;;;;32.90;16.40;;;;;;;3.93;93.65;100462.46;100151;1287;107223;-69
2023/01/07 06:39:32;;;;;;;26.20;16.50;;;;;;;3.95;93.60;100466.78;100176;1298;138041;-70
2023/01/07 06:41:59;;;;;;;30.00;17.40;;;;;;;3.94;93.24;100468.32;100151;1297;111881;-68
2023/01/07 06:44:27;;;;;;;28.90;17.00;;;;;;;3.97;93.25;100469.36;100035;1295;138558;-69
2023/01/07 06:46:54;;;;;;;32.40;18.20;;;;;;;3.97;93.47;100473.14;100145;1297;98389;-69
2023/01/07 06:49:22;;;;;;;30.30;17.20;;;;;;;4.00;93.58;100469.53;100104;1294;106964;-69
2023/01/07 06:51:49;;;;;;;28.10;17.50;;;;;;;4.01;93.61;100468.83;99934;1291;138482;-69
2023/01/07 06:54:16;;;;;;;30.80;17.70;;;;;;;4.00;93.32;100478.83;100107;1282;110957;-69
2023/01/07 06:56:43;;;;;;;29.00;17.30;;;;;;;3.95;93.23;100474.86;100024;1288;138529;-69
2023/01/07 06:59:11;;;;;;;25.90;16.30;;;;;;;3.94;93.51;100479.84;100062;1287;97858;-70
2023/01/07 07:01:38;;;;;;;30.70;17.40;;;;;;;3.96;93.75;100483.13;100054;1289;107598;-70
2023/01/07 07:04:06;;;;;;;28.00;16.70;;;;;;;4.00;93.86;100484.84;99919;1283;138456;-70
2023/01/07 07:06:33;;;;;;;33.30;16.80;;;;;;;4.06;94.16;100489.64;100114;1289;111021;-70
2023/01/07 07:09:00;;;;;;;27.10;15.70;;;;;;;4.12;94.31;100491.00;99987;1297;138734;-68
2023/01/07 07:11:27;;;;;;;29.50;15.90;;;;;;;4.19;94.64;100490.30;100121;1295;98308;-70
2023/01/07 07:13:54;;;;;;;26.60;15.90;;;;;;;4.29;94.69;100495.08;100039;1290;107494;-70
2023/01/07 07:16:22;;;;;;;26.40;15.80;;;;;;;4.32;94.24;100502.15;100011;1289;138947;-70
2023/01/07 07:18:50;;;;;;;29.40;16.00;;;;;;;4.38;94.21;100501.45;100125;1288;112773;-69
2023/01/07 07:21:17;;;;;;;28.50;16.00;;;;;;;4.43;94.20;100509.16;99911;1293;138256;-70
2023/01/07 07:23:44;;;;;;;28.80;16.60;;;;;;;4.45;93.83;100506.05;100078;1290;97702;-70
2023/01/07 07:26:11;;;;;;;30.40;17.30;;;;;;;4.47;93.97;100507.09;100106;1288;107303;-70
2023/01/07 07:28:41;;;;;;;29.90;16.40;;;;;;;4.50;93.91;100510.54;100047;1291;137888;-70
2023/01/07 07:31:09;;;;;;;29.30;17.20;;;;;;;4.52;93.77;100507.60;100104;1282;112385;-70
2023/01/07 07:33:36;;;;;;;32.90;17.60;;;;;;;4.56;93.87;100506.72;99964;1289;138730;-68
2023/01/07 07:36:03;;;;;;;33.30;18.10;;;;;;;4.59;93.80;100509.11;100062;1295;97906;-68
2023/01/07 07:38:30;;;;;;;31.10;18.20;;;;;;;4.64;94.15;100510.12;99982;1298;138690;-69
2023/01/07 07:40:58;;;;;;;34.10;18.00;;;;;;;4.67;93.83;100507.70;100089;1289;97710;-69
2023/01/07 07:43:25;;;;;;;31.50;18.30;;;;;;;4.66;93.39;100509.60;100060;1288;110723;-68
2023/01/07 07:45:52;;;;;;;34.10;19.10;;;;;;;4.69;93.87;100515.46;99988;1289;138572;-69
2023/01/07 07:48:20;;;;;;;34.50;17.40;;;;;;;4.71;93.73;100510.46;100134;1285;97827;-69
2023/01/07 07:50:51;;;;;;;35.10;19.80;;;;;;;4.72;93.50;100516.98;99998;1295;139627;-68
2023/01/07 07:53:21;;;;;;;34.60;19.60;;;;;;;4.74;93.58;100517.85;100009;1287;97720;-69
2023/01/07 07:55:48;;;;;;;35.40;18.60;;;;;;;4.75;93.37;100515.26;100053;1299;112259;-69
2023/01/07 07:58:15;;;;;;;36.80;18.50;;;;;;;4.73;93.23;100517.34;99918;1295;138622;-69
2023/01/07 08:00:43;;;;;;;41.40;20.70;;;;;;;4.73;93.24;100516.98;100121;1288;98850;-69
2023/01/07 08:03:11;;;;;;;36.00;18.50;;;;;;;4.72;93.12;100519.41;100008;1295;139068;-69
2023/01/07 08:05:42;;;;;;;36.70;20.00;;;;;;;4.70;93.24;100514.42;100108;1297;97881;-70
2023/01/07 08:08:10;;;;;;;37.40;19.80;;;;;;;4.67;92.91;100523.21;100111;1297;112823;-69
2023/01/07 08:10:38;;;;;;;40.50;20.60;;;;;;;4.65;93.14;100530.09;99936;1291;138579;-69
2023/01/07 08:13:09;;;;;;;38.40;20.40;;;;;;;4.70;93.78;100529.59;100084;1289;97928;-70
2023/01/07 08:15:36;;;;;;;40.00;21.10;;;;;;;4.78;93.86;100531.27;100050;1287;139603;-69
2023/01/07 08:18:05;;;;;;;38.30;20.20;;;;;;;4.80;93.52;100532.98;100167;1287;97726;-69
2023/01/07 08:20:33;;;;;;;36.80;20.10;;;;;;;4.80;93.38;100532.10;99999;1287;138782;-69
2023/01/07 08:23:03;;;;;;;35.20;21.20;;;;;;;4.79;93.35;100527.28;100057;1289;107508;-69
2023/01/07 08:25:32;;;;;;;39.10;20.90;;;;;;;4.81;93.41;100525.55;99956;1292;97689;-69
2023/01/07 08:28:00;;;;;;;41.70;22.50;;;;;;;4.84;93.46;100525.20;99927;1291;138365;-69
2023/01/07 08:30:27;;;;;;;43.40;21.70;;;;;;;4.86;93.57;100524.52;99351;1297;1002945;-70
2023/01/07 08:32:55;;;;;;;38.10;21.10;;;;;;;4.88;93.41;100526.75;99976;1295;138979;-69
2023/01/07 08:35:23;;;;;;;41.80;21.80;;;;;;;4.87;93.39;100518.48;100133;1288;108729;-68
2023/01/07 08:37:50;;;;;;;36.60;20.40;;;;;;;4.92;93.43;100519.83;100092;1295;97714;-70
2023/01/07 08:40:18;;;;;;;34.20;18.50;;;;;;;5.00;93.96;100518.58;99991;1294;138859;-69
2023/01/07 08:42:45;;;;;;;39.80;19.90;;;;;;;5.09;93.78;100522.34;99993;1297;97825;-70
2023/01/07 08:45:13;;;;;;;39.90;19.60;;;;;;;5.16;93.54;100523.48;99980;1288;138345;-71
2023/01/07 08:47:40;;;;;;;35.00;19.80;;;;;;;5.25;93.40;100531.73;100686;1294;107416;-70
2023/01/07 08:50:08;;;;;;;37.30;20.00;;;;;;;5.31;93.52;100529.45;100139;1297;97904;-70
2023/01/07 08:52:36;;;;;;;36.70;19.90;;;;;;;5.38;93.51;100531.80;99966;1294;138340;-71
2023/01/07 08:55:04;;;;;;;35.20;20.60;;;;;;;5.49;93.43;100534.33;100096;1297;97840;-71
2023/01/07 08:57:31;;;;;;;33.40;20.20;;;;;;;5.55;93.07;100535.30;100067;1297;138648;-70
2023/01/07 08:59:58;;;;;;;38.90;20.00;;;;;;;5.58;92.88;100536.16;100062;1287;107046;-70
2023/01/07 09:02:25;;;;;;;32.10;19.20;;;;;;;5.63;92.74;100532.50;99941;1297;138731;-70
2023/01/07 09:04:53;;;;;;;35.90;19.90;;;;;;;5.67;92.50;100532.12;100079;1287;107778;-70
2023/01/07 09:07:20;;;;;;;29.90;19.00;;;;;;;5.76;92.60;100530.15;100090;1288;97835;-70
2023/01/07 09:09:47;;;;;;;35.00;20.30;;;;;;;5.83;92.35;100529.23;100013;1295;137949;-71
2023/01/07 09:12:14;;;;;;;33.20;20.60;;;;;;;5.88;91.92;100532.98;100109;1295;109308;-71
2023/01/07 09:14:42;;;;;;;30.50;20.10;;;;;;;5.94;91.60;100532.29;99969;1288;138037;-68
2023/01/07 09:17:09;;;;;;;33.00;21.00;;;;;;;5.95;91.47;100535.90;100018;1287;107553;-70
2023/01/07 09:19:36;;;;;;;32.20;19.70;;;;;;;6.05;91.66;100537.52;100094;1289;97928;-70
2023/01/07 09:22:03;;;;;;;31.80;19.90;;;;;;;6.12;91.32;100538.51;100000;1291;138414;-70
2023/01/07 09:24:31;;;;;;;32.70;19.90;;;;;;;6.20;91.20;100538.77;100100;1296;106621;-71
2023/01/07 09:26:58;;;;;;;32.40;20.90;;;;;;;6.26;91.04;100536.64;100016;1288;141280;-68
2023/01/07 09:29:25;;;;;;;29.20;19.30;;;;;;;6.30;90.96;100528.50;100076;1287;108243;-68
2023/01/07 09:31:52;;;;;;;26.40;17.80;;;;;;;6.33;90.47;100533.65;100131;1287;97855;-70
2023/01/07 09:34:20;;;;;;;27.80;16.20;;;;;;;6.28;89.77;100535.59;100027;1295;137710;-69
2023/01/07 09:36:47;;;;;;;27.00;17.20;;;;;;;6.19;89.39;100536.19;100055;1295;108131;-71
2023/01/07 09:39:16;;;;;;;31.40;18.30;;;;;;;6.14;89.30;100531.76;100121;1291;139840;-70
2023/01/07 09:41:54;;;;;;;31.40;18.00;;;;;;;6.07;89.31;100531.63;100173;1288;107003;-70
2023/01/07 09:44:34;;;;;;;29.00;18.20;;;;;;;6.00;89.28;100536.54;99956;1297;138776;-71
2023/01/07 09:47:03;;;;;;;28.60;17.90;;;;;;;5.96;89.32;100532.45;100118;1287;111617;-69
2023/01/07 09:49:32;;;;;;;29.50;17.00;;;;;;;5.93;89.44;100532.64;100094;1286;107228;-70
2023/01/07 09:52:04;;;;;;;31.60;17.50;;;;;;;5.89;89.44;100532.83;100013;1295;138513;-70
2023/01/07 09:54:33;;;;;;;32.00;18.90;;;;;;;5.80;88.82;100536.52;100714;1299;107497;-70
2023/01/07 09:57:00;;;;;;;30.80;18.40;;;;;;;5.73;89.25;100539.31;100022;1281;138713;-69
2023/01/07 09:59:29;;;;;;;30.40;19.40;;;;;;;5.72;89.89;100541.22;100126;1292;111560;-69
2023/01/07 10:02:06;;;;;;;29.00;17.60;;;;;;;5.73;89.99;100540.69;100126;1291;106691;-70
2023/01/07 10:04:41;;;;;;;31.60;18.20;;;;;;;5.74;90.18;100539.13;100037;1288;138359;-71
2023/01/07 10:07:20;;;;;;;32.10;19.10;;;;;;;5.76;90.27;100537.77;100139;1297;107360;-70
2023/01/07 10:10:05;;;;;;;28.20;17.80;;;;;;;5.78;90.36;100537.91;99948;1297;138709;-71
2023/01/07 10:12:38;;;;;;;28.30;17.30;;;;;;;5.77;90.15;100539.30;100096;1295;111129;-70
2023/01/07 10:15:29;;;;;;;28.50;17.70;;;;;;;5.80;90.15;100534.62;100071;1297;139358;-69
2023/01/07 10:18:16;;;;;;;32.30;18.50;;;;;;;5.89;89.95;100535.75;99303;1289;1002761;-69
2023/01/07 10:20:50;;;;;;;32.70;19.80;;;;;;;5.94;89.84;100532.29;100282;1295;138720;-69
2023/01/07 10:23:22;;;;;;;29.90;17.70;;;;;;;6.03;89.95;100535.48;100072;1288;97934;-69
2023/01/07 10:25:53;;;;;;;28.40;17.10;;;;;;;6.08;89.40;100527.30;100222;1287;111161;-69
2023/01/07 10:28:28;;;;;;;29.20;16.80;;;;;;;6.10;88.89;100521.25;99920;1292;138636;-70
2023/01/07 10:30:55;;;;;;;26.80;17.20;;;;;;;6.08;88.90;100515.91;100037;1289;97807;-70
2023/01/07 10:33:27;;;;;;;25.60;17.40;;;;;;;6.13;88.92;100513.14;99985;1289;138717;-70
2023/01/07 10:36:03;;;;;;;27.70;17.90;;;;;;;6.15;88.76;100512.76;100146;1297;97924;-69
2023/01/07 10:38:34;;;;;;;29.50;18.50;;;;;;;6.23;89.33;100510.60;100038;1287;138925;-70
2023/01/07 10:41:07;;;;;;;26.90;17.60;;;;;;;6.32;89.39;100506.02;99399;1288;1003015;-70
2023/01/07 10:43:55;;;;;;;30.20;19.00;;;;;;;6.41;88.89;100507.64;100214;1296;97816;-70
2023/01/07 10:46:42;;;;;;;30.40;18.50;;;;;;;6.44;88.33;100507.77;99997;1292;138392;-70
2023/01/07 10:49:22;;;;;;;33.30;20.80;;;;;;;6.42;87.86;100506.25;100146;1297;97840;-70
2023/01/07 10:52:09;;;;;;;34.90;20.40;;;;;;;6.40;87.89;100500.75;99993;1288;138257;-70
2023/01/07 10:54:51;;;;;;;37.90;21.10;;;;;;;6.47;88.52;100500.84;100043;1299;107954;-70
2023/01/07 10:57:20;;;;;;;32.40;19.40;;;;;;;6.49;88.15;100498.42;99969;1292;138328;-70
2023/01/07 10:59:51;;;;;;;31.10;18.50;;;;;;;6.50;88.10;100497.36;100448;1289;107074;-70
2023/01/07 11:02:21;;;;;;;34.50;19.90;;;;;;;6.49;87.55;100498.42;100075;1295;97811;-70
2023/01/07 11:04:49;;;;;;;29.80;18.40;;;;;;;6.46;87.68;100496.35;98606;1297;1002889;-70
2023/01/07 11:07:25;;;;;;;33.60;19.70;;;;;;;6.45;87.35;100492.56;100038;1289;106555;-70
2023/01/07 11:09:54;;;;;;;33.60;19.20;;;;;;;6.41;87.23;100494.86;99995;1288;139704;-70
2023/01/07 11:12:27;;;;;;;31.20;19.20;;;;;;;6.40;87.22;100495.22;100011;1289;108454;-70
2023/01/07 11:14:58;;;;;;;31.00;19.60;;;;;;;6.45;87.75;100496.54;100001;1296;138739;-70
2023/01/07 11:17:34;;;;;;;30.80;18.20;;;;;;;6.46;87.08;100492.55;100092;1289;111204;-70
2023/01/07 11:20:02;;;;;;;32.50;20.00;;;;;;;6.48;87.60;100491.16;100091;1297;106828;-70